Terminal Aerodrome Forecast
Issued by NWS

Home | Current Version | Previous Version | Text Only | Print | Product List | Glossary On
Versions: 1 2 3 4 5 6 7 8 9 10 11 12 13 14
631
FTUS41 KPHI 260555
TAFPNE
TAF
KPNE 260555Z 2606/2706 05014KT 3SM BR OVC005
      TEMPO 2606/2608 -SHRA
     FM261000 04009KT 2SM BR VCSH OVC003
     FM261200 03006KT P6SM OVC003
     FM261500 02007KT P6SM OVC008
     FM261800 01007KT P6SM OVC010
     FM262000 02006KT P6SM OVC020
     FM270200 VRB03KT P6SM BKN010
     FM270400 VRB03KT 3SM BR BKN007=

USA.gov is the U.S. government's official web portal to all federal, state and local government web resources and services.